www.wetter-mitterlabill.at
Wetterdaten: aktuell Donnerstag, 03.01.2019 20:46
Datum Zeit Temp. A. Feuchte A. Luftdruck Regen Wind Sonnenschein ET UV Solar Taupunkt Windchill Windben Empfang
03.01.2019 20:46 -2,5 C 80 % 1023,6 hPa 0,0 l/m 1,1 km/h (1 Bft) 0 min 0,000 mm 0,0 UV-I 1 W/m -5,5 C -2,5 C 2,5 km/h (1 Bft) 0,00 %
03.01.2019 19:46 -2,5 C 80 % 1022,7 hPa 0,0 l/m 1,1 km/h (1 Bft) 0 min 0,000 mm 0,0 UV-I 1 W/m -5,5 C -2,5 C 5,0 km/h (1 Bft) 0,00 %
03.01.2019 18:46 -0,9 C 60 % 1022,2 hPa 0,0 l/m 6,1 km/h (2 Bft) 0 min 0,000 mm 0,0 UV-I 1 W/m -7,7 C -3,1 C 12,2 km/h (2 Bft) 0,00 %
03.01.2019 17:46 -0,6 C 52 % 1021,6 hPa 0,0 l/m 4,3 km/h (1 Bft) 0 min 0,000 mm 0,0 UV-I 1 W/m -9,2 C -0,6 C 7,2 km/h (2 Bft) 0,00 %
03.01.2019 16:46 -0,4 C 48 % 1021,7 hPa 0,0 l/m 8,2 km/h (2 Bft) 0 min 0,000 mm 0,0 UV-I 1 W/m -10,0 C -3,3 C 14,8 km/h (3 Bft) 0,00 %
03.01.2019 15:46 0,8 C 41 % 1022,3 hPa 0,0 l/m 5,0 km/h (1 Bft) 0 min 0,000 mm 0,0 UV-I 16 W/m -10,9 C -0,7 C 7,2 km/h (2 Bft) 0,00 %
03.01.2019 14:46 3,8 C 38 % 1022,7 hPa 0,0 l/m 3,1 km/h (1 Bft) 0 min 0,000 mm 0,0 UV-I 74 W/m -9,2 C 3,8 C 6,1 km/h (2 Bft) 0,00 %
03.01.2019 13:46 1,9 C 38 % 1022,9 hPa 0,0 l/m 10,0 km/h (2 Bft) 0 min 0,000 mm 0,0 UV-I 90 W/m -10,9 C -1,0 C 14,8 km/h (3 Bft) 0,00 %
03.01.2019 12:46 2,4 C 36 % 1023,7 hPa 0,0 l/m 15,3 km/h (3 Bft) 0 min 0,000 mm 0,0 UV-I 240 W/m -11,1 C -1,5 C 23,4 km/h (4 Bft) 0,00 %
03.01.2019 11:46 0,8 C 38 % 1025,1 hPa 0,0 l/m 11,0 km/h (2 Bft) 0 min 0,000 mm 0,0 UV-I 102 W/m -11,9 C -2,6 C 23,4 km/h (4 Bft) 0,00 %
03.01.2019 10:46 2,5 C 31 % 1025,0 hPa 0,0 l/m 16,7 km/h (3 Bft) 0 min 0,000 mm 1,0 UV-I 265 W/m -12,9 C -1,6 C 30,6 km/h (5 Bft) 0,00 %
03.01.2019 09:46 1,0 C 33 % 1024,8 hPa 0,0 l/m 10,6 km/h (2 Bft) 0 min 0,000 mm 0,0 UV-I 176 W/m -13,4 C -2,3 C 17,3 km/h (3 Bft) 0,00 %
03.01.2019 08:46 0,3 C 40 % 1024,6 hPa 0,0 l/m 4,3 km/h (1 Bft) 0 min 0,000 mm 0,0 UV-I 54 W/m -11,7 C 0,3 C 6,1 km/h (2 Bft) 0,00 %
03.01.2019 07:46 -1,8 C 42 % 1023,8 hPa 0,0 l/m 3,1 km/h (1 Bft) 0 min 0,000 mm 0,0 UV-I 4 W/m -13,0 C -1,8 C 6,1 km/h (2 Bft) 0,00 %
03.01.2019 06:54 -1,8 C 46 % 1023,0 hPa 0,0 l/m 11,4 km/h (2 Bft) 0 min 0,000 mm 0,0 UV-I 1 W/m -11,9 C -5,8 C 15,8 km/h (3 Bft) 0,00 %
03.01.2019 05:54 -1,7 C 50 % 1022,4 hPa 0,0 l/m 5,6 km/h (1 Bft) 0 min 0,000 mm 0,0 UV-I 1 W/m -10,7 C -3,8 C 7,2 km/h (2 Bft) 0,00 %
03.01.2019 04:54 -2,9 C 52 % 1021,8 hPa 0,0 l/m 1,1 km/h (1 Bft) 0 min 0,000 mm 0,0 UV-I 1 W/m -11,3 C -2,9 C 2,5 km/h (1 Bft) 0,00 %
03.01.2019 03:54 -2,8 C 54 % 1021,3 hPa 0,0 l/m 1,9 km/h (1 Bft) 0 min 0,000 mm 0,0 UV-I 1 W/m -10,8 C -2,8 C 3,6 km/h (1 Bft) 0,00 %
03.01.2019 02:54 -2,6 C 53 % 1021,4 hPa 0,0 l/m 0,0 km/h (0 Bft) 0 min 0,000 mm 0,0 UV-I 1 W/m -10,8 C -2,6 C 1,1 km/h (1 Bft) 0,00 %
03.01.2019 01:54 -2,1 C 57 % 1020,9 hPa 0,0 l/m 3,1 km/h (1 Bft) 0 min 0,000 mm 0,0 UV-I 1 W/m -9,4 C -2,1 C 5,0 km/h (1 Bft) 0,00 %
03.01.2019 00:54 -2,1 C 66 % 1020,7 hPa 0,0 l/m 2,5 km/h (1 Bft) 0 min 0,000 mm 0,0 UV-I 1 W/m -7,6 C -2,1 C 3,6 km/h (1 Bft) 0,00 %
03.01.2019 00:00 -1,6 C 66 % 1020,6 hPa 0,0 l/m 1,1 km/h (1 Bft) 0 min 0,000 mm 0,0 UV-I 1 W/m -7,1 C -1,6 C 2,5 km/h (1 Bft) 0,00 %
_ Min-Zeit 04:47 10:15 00:48 - 00:30 - - - - 09:44 20:09 00:30 00:00
Minimum _ -3,1 C 30 % 1020,4 hPa - 0,0 km/h (0 Bft) - - - - -13,6 C -7,3 C 0,0 km/h (0 Bft) 0,00 %
_ Max-Zeit 14:46 19:45 11:12 00:00 12:55 00:00 00:00 10:46 10:52 20:08 14:46 09:14 00:00
Maximum _ 3,8 C 80 % 1025,4 hPa 0,0 l/m 26,1 km/h
SW (4 Bft)
0 min 0,000 mm 1,0 UV-I 322 W/m -5,4 C 3,8 C 35,6 km/h
N (5 Bft)
0,00 %
Durchschnitt _ -0,5 C 49 % 1022,7 hPa #0,0 l/m 6,2 km/h (2 Bft) #0 min. #0,000 mm 0,9 UV-I 53 W/m -10,3 C -2,1 C 10,1 km/h (2 Bft) 0,00 %
© 2014 Werner Schuster